Coron, Philippines
Current Conditions -  °F | °C
As of 7:00 PM on Friday 19 Dec 2014 (Local Time) from RPLL Reporting Station
Overcast Overcast  
Wind Chill: 26°   Ceiling: 10000
Heat Index: 28°   Visibility: 6mi
Dew Point: 22°   Wind: 9mph
Humidity: 78%   Direction: 110°ESE
Pressure: 29.97"   Gusts: NA
Location:  12°N, 120.21°E
Report Text: RPLL 191100Z 11008KT 9999 SCT023 OVC100 26/22 Q1015 NOSIG RMK A2997
Loading
Personal Weather Stations






























Interactive Weather Map New forecast layout! Learn more

10-Day Weather Forecast

Advertisements
Track Severe Weather on mobile